Terminal Aerodrome Forecast
Issued by NWS

Home | Current Version | Previous Version | Text Only | Print | Product List | Glossary On
Versions: 1 2 3 4 5 6 7 8 9 10 11 12
000
FTUS42 TJSJ 241748
TAFISX
TAF
TISX 241748Z 2418/2518 10016KT P6SM SCT025
     FM242200 07010KT P6SM FEW025
     FM251300 11013KT P6SM SCT025=

USA.gov is the U.S. government's official web portal to all federal, state and local government web resources and services.